createdAt,value
2023-08-31T00:00:14.793Z,99.90
2023-08-31T00:02:42.354Z,99.90
2023-08-31T00:05:10.097Z,99.90
2023-08-31T00:07:37.362Z,99.90
2023-08-31T00:10:10.831Z,99.90
2023-08-31T00:12:40.841Z,99.90
2023-08-31T00:15:13.434Z,99.90
2023-08-31T00:17:40.535Z,99.90
2023-08-31T00:20:09.931Z,99.90
2023-08-31T00:22:37.501Z,99.90
2023-08-31T00:25:20.440Z,99.90
2023-08-31T00:27:49.858Z,99.90
2023-08-31T00:30:17.401Z,99.90
2023-08-31T00:32:44.824Z,99.90
2023-08-31T00:35:15.112Z,99.90
2023-08-31T00:37:42.615Z,99.90
2023-08-31T00:40:10.674Z,99.90
2023-08-31T00:42:38.870Z,99.90
2023-08-31T00:45:07.473Z,99.90
2023-08-31T00:47:35.054Z,99.90
2023-08-31T00:50:02.454Z,99.90
2023-08-31T00:52:30.341Z,99.90
2023-08-31T00:54:58.361Z,99.90
2023-08-31T00:57:27.634Z,99.90
2023-08-31T00:59:56.606Z,99.90
2023-08-31T01:02:50.387Z,99.90
2023-08-31T01:05:39.869Z,99.90
2023-08-31T01:08:24.580Z,99.90
2023-08-31T01:11:19.078Z,99.90
2023-08-31T01:14:25.816Z,99.90
2023-08-31T01:16:55.232Z,99.90
2023-08-31T01:19:49.964Z,99.90
2023-08-31T01:22:44.896Z,99.90
2023-08-31T01:25:13.518Z,99.90
2023-08-31T01:27:41.843Z,99.90
2023-08-31T01:30:10.233Z,99.90
2023-08-31T01:32:38.218Z,99.90
2023-08-31T01:35:07.409Z,99.90
2023-08-31T01:38:00.591Z,99.90
2023-08-31T01:40:45.943Z,99.90
2023-08-31T01:43:35.087Z,99.90
2023-08-31T01:46:02.550Z,99.90
2023-08-31T01:48:32.253Z,99.90
2023-08-31T01:51:20.704Z,99.90
2023-08-31T01:53:48.142Z,99.90
2023-08-31T01:56:18.395Z,99.90
2023-08-31T01:58:45.639Z,99.90
2023-08-31T02:01:16.324Z,99.90
2023-08-31T02:03:46.589Z,99.90
2023-08-31T02:06:13.715Z,99.90
2023-08-31T02:08:44.318Z,99.90
2023-08-31T02:11:11.382Z,99.90
2023-08-31T02:13:38.942Z,99.90
2023-08-31T02:16:06.030Z,99.90
2023-08-31T02:18:33.328Z,99.90
2023-08-31T02:21:03.874Z,99.90
2023-08-31T02:23:31.212Z,99.90
2023-08-31T02:25:58.273Z,99.90
2023-08-31T02:28:25.553Z,99.90
2023-08-31T02:31:00.842Z,99.90
2023-08-31T02:33:28.014Z,99.90
2023-08-31T02:35:59.185Z,99.90
2023-08-31T02:38:40.845Z,99.90
2023-08-31T02:41:10.570Z,99.90
2023-08-31T02:43:37.855Z,99.90
2023-08-31T02:46:06.925Z,99.90
2023-08-31T02:48:50.566Z,99.90
2023-08-31T02:51:18.186Z,99.90
2023-08-31T02:53:45.744Z,99.90
2023-08-31T02:56:13.230Z,99.90
2023-08-31T02:58:40.932Z,99.90
2023-08-31T03:01:12.931Z,99.90
2023-08-31T03:03:52.849Z,99.90
2023-08-31T03:06:20.151Z,99.90
2023-08-31T03:08:49.736Z,99.90
2023-08-31T03:11:17.328Z,99.90
2023-08-31T03:13:44.489Z,99.90
2023-08-31T03:16:11.995Z,99.90
2023-08-31T03:18:39.524Z,99.90
2023-08-31T03:21:06.898Z,99.90
2023-08-31T03:23:33.971Z,99.90
2023-08-31T03:26:01.573Z,99.90
2023-08-31T03:28:28.775Z,99.90
2023-08-31T03:31:10.163Z,99.90
2023-08-31T03:33:41.784Z,99.90
2023-08-31T03:36:08.865Z,99.90
2023-08-31T03:38:39.548Z,99.90
2023-08-31T03:41:20.546Z,99.90
2023-08-31T03:43:47.965Z,99.90
2023-08-31T03:46:15.573Z,99.90
2023-08-31T03:48:42.785Z,99.90
2023-08-31T03:51:10.034Z,99.90
2023-08-31T03:53:56.398Z,99.90
2023-08-31T03:56:23.968Z,99.90
2023-08-31T03:58:54.668Z,99.90
2023-08-31T04:01:22.170Z,99.90
2023-08-31T04:03:51.020Z,99.90
2023-08-31T04:06:30.031Z,99.90
2023-08-31T04:08:57.488Z,99.90
2023-08-31T04:11:29.391Z,99.90
2023-08-31T04:13:56.524Z,99.90
2023-08-31T04:16:26.126Z,99.90
2023-08-31T04:22:02.173Z,99.90
2023-08-31T04:24:30.761Z,99.90
2023-08-31T04:26:58.246Z,99.90
2023-08-31T04:29:25.463Z,99.90
2023-08-31T04:32:01.097Z,99.90
2023-08-31T04:34:28.972Z,99.90
2023-08-31T04:36:56.181Z,99.90
2023-08-31T04:39:23.396Z,99.90
2023-08-31T04:41:50.562Z,99.90
2023-08-31T04:44:18.677Z,99.90
2023-08-31T04:46:47.525Z,99.90
2023-08-31T04:49:16.642Z,99.90
2023-08-31T04:51:46.365Z,99.90
2023-08-31T04:54:24.422Z,99.90
2023-08-31T04:56:54.691Z,99.90
2023-08-31T04:59:21.837Z,99.90
2023-08-31T05:01:49.182Z,99.90
2023-08-31T05:04:19.178Z,99.90
2023-08-31T05:06:46.554Z,99.90
2023-08-31T05:09:13.736Z,99.90
2023-08-31T05:11:42.500Z,99.90
2023-08-31T05:14:09.722Z,99.90
2023-08-31T05:16:37.676Z,99.90
2023-08-31T05:19:05.097Z,99.90
2023-08-31T05:21:39.788Z,99.90
2023-08-31T05:24:26.258Z,99.90
2023-08-31T05:26:53.420Z,99.90
2023-08-31T05:29:20.706Z,99.90
2023-08-31T05:31:50.341Z,99.90
2023-08-31T05:34:21.157Z,99.90
2023-08-31T05:36:54.487Z,99.90
2023-08-31T05:39:33.523Z,99.90
2023-08-31T05:42:03.766Z,99.90
2023-08-31T05:44:33.442Z,99.90
2023-08-31T05:47:00.828Z,99.90
2023-08-31T05:49:30.155Z,99.90
2023-08-31T05:51:57.536Z,99.90
2023-08-31T05:54:28.803Z,99.90
2023-08-31T05:56:58.716Z,99.90
2023-08-31T05:59:32.209Z,99.90
2023-08-31T06:01:59.689Z,99.90
2023-08-31T06:04:27.450Z,99.90
2023-08-31T06:06:57.266Z,99.90
2023-08-31T06:09:27.240Z,99.90
2023-08-31T06:11:56.782Z,99.90
2023-08-31T06:14:35.107Z,99.90
2023-08-31T06:17:02.425Z,99.90
2023-08-31T06:19:29.875Z,99.90
2023-08-31T06:21:57.412Z,99.90
2023-08-31T06:24:26.019Z,99.90
2023-08-31T06:26:53.346Z,99.90
2023-08-31T06:29:25.349Z,99.90
2023-08-31T06:31:52.858Z,99.90
2023-08-31T06:34:20.303Z,99.90
2023-08-31T06:36:47.337Z,99.90
2023-08-31T06:39:14.349Z,99.90
2023-08-31T06:41:41.373Z,99.90
2023-08-31T06:44:08.766Z,99.90
2023-08-31T06:46:39.304Z,99.90
2023-08-31T06:49:06.647Z,99.90
2023-08-31T06:51:35.109Z,99.90
2023-08-31T06:54:08.328Z,99.90
2023-08-31T06:56:36.800Z,99.90
2023-08-31T06:59:04.235Z,99.90
2023-08-31T07:01:35.170Z,99.90
2023-08-31T07:04:02.590Z,99.90
2023-08-31T07:06:30.281Z,99.90
2023-08-31T07:08:57.847Z,99.90
2023-08-31T07:11:27.558Z,99.90
2023-08-31T07:13:54.899Z,99.90
2023-08-31T07:16:22.932Z,99.90
2023-08-31T07:18:50.306Z,99.90
2023-08-31T07:21:24.347Z,99.90
2023-08-31T07:23:58.112Z,99.90
2023-08-31T07:26:27.109Z,99.90
2023-08-31T07:28:54.480Z,99.90
2023-08-31T07:31:21.786Z,99.90
2023-08-31T07:33:50.329Z,99.90
2023-08-31T07:36:17.946Z,99.90
2023-08-31T07:38:48.202Z,99.90
2023-08-31T07:41:15.520Z,99.90
2023-08-31T07:43:51.288Z,99.90
2023-08-31T07:46:26.431Z,99.90
2023-08-31T07:48:56.955Z,99.90
2023-08-31T07:51:32.873Z,99.90
2023-08-31T07:54:01.066Z,99.90
2023-08-31T07:56:28.393Z,99.90
2023-08-31T07:58:55.687Z,99.90
2023-08-31T08:01:23.333Z,99.90
2023-08-31T08:03:50.862Z,99.90
2023-08-31T08:06:18.602Z,99.90
2023-08-31T08:08:47.564Z,99.90
2023-08-31T08:11:14.996Z,99.90
2023-08-31T08:13:45.177Z,99.90
2023-08-31T08:16:12.431Z,99.90
2023-08-31T08:18:39.898Z,99.90
2023-08-31T08:21:07.253Z,99.90
2023-08-31T08:23:34.814Z,99.90
2023-08-31T08:26:02.084Z,99.90
2023-08-31T08:28:29.593Z,99.90
2023-08-31T08:30:57.387Z,99.90
2023-08-31T08:33:24.866Z,99.90
2023-08-31T08:35:52.082Z,99.90
2023-08-31T08:38:23.566Z,99.90
2023-08-31T08:40:50.870Z,99.90
2023-08-31T08:43:27.708Z,99.90
2023-08-31T08:45:56.391Z,99.90
2023-08-31T08:51:05.666Z,99.90
2023-08-31T08:53:33.150Z,99.90
2023-08-31T08:56:00.484Z,99.90
2023-08-31T08:58:27.835Z,99.90
2023-08-31T09:00:57.969Z,99.90
2023-08-31T09:03:28.368Z,99.90
2023-08-31T09:05:55.787Z,99.90
2023-08-31T09:08:30.497Z,99.90
2023-08-31T09:11:03.841Z,99.90
2023-08-31T09:13:55.041Z,99.90
2023-08-31T09:16:31.492Z,99.90
2023-08-31T09:19:00.040Z,99.90
2023-08-31T09:21:42.457Z,99.90
2023-08-31T09:24:13.717Z,99.90
2023-08-31T09:26:50.701Z,99.90
2023-08-31T09:29:19.736Z,99.90
2023-08-31T09:31:49.734Z,99.90
2023-08-31T09:34:34.289Z,99.90
2023-08-31T09:37:10.814Z,99.90
2023-08-31T09:39:41.311Z,99.90
2023-08-31T09:42:08.502Z,99.90
2023-08-31T09:44:41.552Z,99.90
2023-08-31T09:47:10.434Z,99.90
2023-08-31T09:49:40.373Z,99.90
2023-08-31T09:52:10.605Z,99.90
2023-08-31T09:54:38.892Z,99.90
2023-08-31T09:57:06.893Z,99.90
2023-08-31T09:59:38.827Z,99.90
2023-08-31T10:02:07.862Z,99.90
2023-08-31T10:04:38.606Z,99.90
2023-08-31T10:07:07.126Z,99.90
2023-08-31T10:09:34.647Z,99.90
2023-08-31T10:12:04.860Z,99.90
2023-08-31T10:14:32.797Z,99.90
2023-08-31T10:17:05.255Z,99.90
2023-08-31T10:19:34.863Z,99.90
2023-08-31T10:22:03.434Z,99.90
2023-08-31T10:25:05.162Z,99.90
2023-08-31T10:27:52.386Z,98.60
2023-08-31T10:30:29.870Z,99.30
2023-08-31T10:33:09.246Z,99.80
2023-08-31T10:35:50.462Z,99.00
2023-08-31T10:38:27.401Z,98.00
2023-08-31T10:41:18.042Z,96.40
2023-08-31T10:43:55.597Z,95.60
2023-08-31T10:46:35.121Z,94.40
2023-08-31T10:49:04.812Z,94.40
2023-08-31T10:51:33.762Z,93.20
2023-08-31T10:54:27.271Z,93.60
2023-08-31T10:57:04.560Z,93.80
2023-08-31T10:59:57.409Z,93.90
2023-08-31T11:02:44.008Z,93.90
2023-08-31T11:05:13.609Z,95.00
2023-08-31T11:07:46.065Z,94.60
2023-08-31T11:10:19.149Z,92.20
2023-08-31T11:12:51.289Z,91.10
2023-08-31T11:15:20.862Z,89.70
2023-08-31T11:17:53.330Z,87.20
2023-08-31T11:20:22.687Z,89.90
2023-08-31T11:22:57.725Z,87.50
2023-08-31T11:25:27.053Z,86.80
2023-08-31T11:27:59.491Z,77.50
2023-08-31T11:30:33.836Z,78.10
2023-08-31T11:33:06.812Z,78.70
2023-08-31T11:35:39.546Z,80.40
2023-08-31T11:38:07.608Z,80.30
2023-08-31T11:40:35.507Z,80.30
2023-08-31T11:43:09.344Z,78.80
2023-08-31T11:45:38.096Z,77.80
2023-08-31T11:48:06.357Z,79.20
2023-08-31T11:50:33.740Z,80.70
2023-08-31T11:53:01.130Z,79.60
2023-08-31T11:55:31.008Z,76.70
2023-08-31T11:57:58.150Z,75.40
2023-08-31T12:00:27.997Z,74.70
2023-08-31T12:03:02.393Z,74.00
2023-08-31T12:05:30.657Z,74.60
2023-08-31T12:07:58.178Z,72.60
2023-08-31T12:10:26.390Z,70.20
2023-08-31T12:12:54.585Z,70.40
2023-08-31T12:15:24.668Z,71.80
2023-08-31T12:17:56.195Z,71.40
2023-08-31T12:20:30.599Z,70.80
2023-08-31T12:23:00.702Z,73.00
2023-08-31T12:25:28.733Z,71.70
2023-08-31T12:27:58.453Z,72.40
2023-08-31T12:30:28.342Z,74.10
2023-08-31T12:32:55.861Z,75.30
2023-08-31T12:35:23.251Z,75.60
2023-08-31T12:37:50.361Z,76.80
2023-08-31T12:40:20.639Z,76.30
2023-08-31T12:42:47.705Z,77.10
2023-08-31T12:45:15.030Z,78.50
2023-08-31T12:47:42.230Z,78.20
2023-08-31T12:50:09.873Z,78.40
2023-08-31T12:52:37.140Z,77.00
2023-08-31T12:55:06.030Z,77.50
2023-08-31T12:57:34.856Z,76.00
2023-08-31T13:00:10.593Z,74.30
2023-08-31T13:02:40.937Z,73.10
2023-08-31T13:05:09.731Z,72.50
2023-08-31T13:07:40.371Z,72.20
2023-08-31T13:10:08.055Z,72.10
2023-08-31T13:12:35.621Z,71.50
2023-08-31T13:15:03.594Z,70.40
2023-08-31T13:17:30.827Z,71.90
2023-08-31T13:20:01.026Z,71.50
2023-08-31T13:22:30.248Z,69.40
2023-08-31T13:24:57.916Z,67.80
2023-08-31T13:27:27.311Z,67.00
2023-08-31T13:29:54.888Z,67.20
2023-08-31T13:32:25.409Z,67.10
2023-08-31T13:34:56.063Z,66.50
2023-08-31T13:37:23.168Z,68.10
2023-08-31T13:39:53.275Z,66.90
2023-08-31T13:42:27.575Z,66.00
2023-08-31T13:44:54.660Z,63.90
2023-08-31T13:47:29.336Z,65.10
2023-08-31T13:49:56.555Z,65.50
2023-08-31T13:52:23.714Z,66.10
2023-08-31T13:54:50.781Z,67.20
2023-08-31T13:57:19.175Z,67.70
2023-08-31T13:59:48.578Z,68.30
2023-08-31T14:02:16.343Z,69.40
2023-08-31T14:04:44.388Z,69.60
2023-08-31T14:07:11.919Z,67.40
2023-08-31T14:09:39.345Z,66.10
2023-08-31T14:12:18.930Z,64.60
2023-08-31T14:14:47.606Z,64.60
2023-08-31T14:17:15.093Z,65.60
2023-08-31T14:19:44.740Z,66.20
2023-08-31T14:22:12.055Z,67.20
2023-08-31T14:24:40.552Z,67.50
2023-08-31T14:27:07.935Z,67.50
2023-08-31T14:29:38.508Z,68.10
2023-08-31T14:32:08.637Z,67.30
2023-08-31T14:34:39.797Z,66.10
2023-08-31T14:37:11.643Z,65.50
2023-08-31T14:39:44.941Z,66.10
2023-08-31T14:42:12.875Z,66.50
2023-08-31T14:44:40.809Z,66.50
2023-08-31T14:47:08.462Z,66.10
2023-08-31T14:52:38.833Z,66.50
2023-08-31T14:55:09.016Z,65.50
2023-08-31T14:57:43.291Z,65.50
2023-08-31T15:00:16.317Z,65.60
2023-08-31T15:02:43.638Z,66.40
2023-08-31T15:05:12.873Z,66.10
2023-08-31T15:07:42.613Z,65.60
2023-08-31T15:10:11.193Z,64.20
2023-08-31T15:12:43.826Z,64.50
2023-08-31T15:15:14.537Z,65.50
2023-08-31T15:17:41.750Z,67.70
2023-08-31T15:20:11.547Z,70.20
2023-08-31T15:22:38.862Z,70.70
2023-08-31T15:25:06.989Z,70.80
2023-08-31T15:27:34.932Z,68.70
2023-08-31T15:30:02.495Z,68.60
2023-08-31T15:32:29.884Z,69.20
2023-08-31T15:34:57.967Z,71.10
2023-08-31T15:37:26.294Z,73.00
2023-08-31T15:40:01.408Z,72.30
2023-08-31T15:42:29.917Z,71.70
2023-08-31T15:44:57.281Z,71.60
2023-08-31T15:47:25.812Z,71.50
2023-08-31T15:49:53.972Z,71.30
2023-08-31T15:52:21.130Z,71.20
2023-08-31T15:54:48.772Z,70.60
2023-08-31T15:57:21.493Z,71.20
2023-08-31T15:59:49.025Z,71.20
2023-08-31T16:02:17.304Z,69.30
2023-08-31T16:04:45.450Z,68.80
2023-08-31T16:07:14.854Z,69.60
2023-08-31T16:09:48.677Z,70.10
2023-08-31T16:12:15.736Z,69.30
2023-08-31T16:14:43.039Z,69.90
2023-08-31T16:17:11.409Z,69.80
2023-08-31T16:19:38.410Z,67.20
2023-08-31T16:22:06.824Z,66.30
2023-08-31T16:24:39.745Z,66.10
2023-08-31T16:27:09.168Z,67.00
2023-08-31T16:29:52.545Z,68.40
2023-08-31T16:32:21.039Z,70.30
2023-08-31T16:34:55.642Z,72.10
2023-08-31T16:37:23.318Z,73.40
2023-08-31T16:39:59.676Z,73.50
2023-08-31T16:42:30.193Z,73.40
2023-08-31T16:45:05.117Z,74.10
2023-08-31T16:47:34.605Z,76.30
2023-08-31T16:50:01.742Z,77.90
2023-08-31T16:52:28.764Z,79.30
2023-08-31T16:54:59.703Z,79.90
2023-08-31T16:57:26.925Z,80.50
2023-08-31T16:59:54.537Z,82.20
2023-08-31T17:02:28.129Z,84.00
2023-08-31T17:04:58.158Z,86.10
2023-08-31T17:07:27.622Z,87.30
2023-08-31T17:09:56.008Z,88.60
2023-08-31T17:12:23.661Z,89.50
2023-08-31T17:14:55.092Z,90.20
2023-08-31T17:17:29.320Z,90.60
2023-08-31T17:19:56.413Z,91.20
2023-08-31T17:22:26.488Z,91.70
2023-08-31T17:24:53.947Z,92.10
2023-08-31T17:27:26.710Z,92.60
2023-08-31T17:29:56.876Z,93.10
2023-08-31T17:32:26.961Z,93.60
2023-08-31T17:34:53.974Z,94.20
2023-08-31T17:37:29.174Z,95.00
2023-08-31T17:39:56.499Z,95.30
2023-08-31T17:42:23.581Z,95.90
2023-08-31T17:44:52.827Z,96.40
2023-08-31T17:47:20.543Z,96.60
2023-08-31T17:49:47.586Z,97.10
2023-08-31T17:52:14.720Z,97.50
2023-08-31T17:54:44.514Z,97.60
2023-08-31T17:57:12.004Z,98.40
2023-08-31T17:59:39.367Z,99.00
2023-08-31T18:02:07.092Z,99.40
2023-08-31T18:04:34.270Z,99.90
2023-08-31T18:07:02.235Z,99.90
2023-08-31T18:09:31.802Z,99.90
2023-08-31T18:11:58.827Z,99.90
2023-08-31T18:14:26.062Z,99.90
2023-08-31T18:16:53.186Z,99.90
2023-08-31T18:19:20.308Z,99.90
2023-08-31T18:21:47.369Z,99.90
2023-08-31T18:24:14.737Z,99.90
2023-08-31T18:26:42.550Z,99.90
2023-08-31T18:29:09.673Z,99.90
2023-08-31T18:31:42.241Z,99.90
2023-08-31T18:34:09.856Z,99.90
2023-08-31T18:36:37.465Z,99.90
2023-08-31T18:39:08.577Z,99.90
2023-08-31T18:41:37.444Z,99.90
2023-08-31T18:44:04.877Z,99.90
2023-08-31T18:46:32.199Z,99.90
2023-08-31T18:48:59.553Z,99.90
2023-08-31T18:51:27.248Z,99.90
2023-08-31T18:53:54.351Z,99.90
2023-08-31T18:56:21.515Z,99.90
2023-08-31T18:58:49.918Z,99.90
2023-08-31T19:01:17.060Z,99.90
2023-08-31T19:03:44.173Z,99.90
2023-08-31T19:06:11.828Z,99.90
2023-08-31T19:08:38.942Z,99.90
2023-08-31T19:11:10.254Z,99.90
2023-08-31T19:13:37.597Z,99.90
2023-08-31T19:16:05.269Z,99.90
2023-08-31T19:18:32.319Z,99.90
2023-08-31T19:21:17.916Z,99.90
2023-08-31T19:23:49.407Z,99.90
2023-08-31T19:26:16.648Z,99.90
2023-08-31T19:28:43.702Z,99.90
2023-08-31T19:31:11.195Z,99.90
2023-08-31T19:33:38.714Z,99.90
2023-08-31T19:36:06.066Z,99.90
2023-08-31T19:38:33.149Z,99.90
2023-08-31T19:41:00.366Z,99.90
2023-08-31T19:43:27.621Z,99.90
2023-08-31T19:45:55.071Z,99.90
2023-08-31T19:48:25.187Z,99.90
2023-08-31T19:50:53.827Z,99.90
2023-08-31T19:53:20.917Z,99.90
2023-08-31T19:55:50.259Z,99.90
2023-08-31T19:58:17.557Z,99.90
2023-08-31T20:00:45.129Z,99.90
2023-08-31T20:03:12.654Z,99.90
2023-08-31T20:05:40.101Z,99.90
2023-08-31T20:08:08.124Z,99.90
2023-08-31T20:10:35.408Z,99.90
2023-08-31T20:13:02.892Z,99.90
2023-08-31T20:15:30.267Z,99.90
2023-08-31T20:17:57.412Z,99.90
2023-08-31T20:20:24.771Z,99.90
2023-08-31T20:22:51.933Z,99.90
2023-08-31T20:25:20.301Z,99.90
2023-08-31T20:27:48.193Z,99.90
2023-08-31T20:30:16.054Z,99.90
2023-08-31T20:32:43.155Z,99.90
2023-08-31T20:35:13.799Z,99.90
2023-08-31T20:37:41.346Z,99.90
2023-08-31T20:40:11.960Z,99.90
2023-08-31T20:42:40.360Z,99.90
2023-08-31T20:45:11.995Z,99.90
2023-08-31T20:47:39.175Z,99.90
2023-08-31T20:50:16.328Z,99.90
2023-08-31T20:52:46.962Z,99.90
2023-08-31T20:55:18.892Z,99.90
2023-08-31T20:57:51.443Z,99.90
2023-08-31T21:00:20.860Z,99.90
2023-08-31T21:02:48.325Z,99.90
2023-08-31T21:05:15.512Z,99.90
2023-08-31T21:07:42.820Z,99.90
2023-08-31T21:10:10.067Z,99.90
2023-08-31T21:12:37.375Z,99.90
2023-08-31T21:15:08.521Z,99.90
2023-08-31T21:17:35.966Z,99.90
2023-08-31T21:20:05.948Z,99.90
2023-08-31T21:22:33.025Z,99.90
2023-08-31T21:25:20.396Z,99.90
2023-08-31T21:27:58.972Z,99.90
2023-08-31T21:30:26.077Z,99.90
2023-08-31T21:32:53.269Z,99.90
2023-08-31T21:35:20.426Z,99.90
2023-08-31T21:37:47.886Z,99.90
2023-08-31T21:40:15.331Z,99.90
2023-08-31T21:42:43.050Z,99.90
2023-08-31T21:45:14.876Z,99.90
2023-08-31T21:47:46.331Z,99.90
2023-08-31T21:50:14.277Z,99.90
2023-08-31T21:52:52.079Z,99.90
2023-08-31T21:55:19.278Z,99.90
2023-08-31T21:57:51.438Z,99.90
2023-08-31T22:00:19.960Z,99.90
2023-08-31T22:02:55.205Z,99.90
2023-08-31T22:05:24.992Z,99.90
2023-08-31T22:07:53.528Z,99.90
2023-08-31T22:10:21.258Z,99.90
2023-08-31T22:12:48.585Z,99.90
2023-08-31T22:15:18.012Z,99.90
2023-08-31T22:17:49.701Z,99.90
2023-08-31T22:20:17.798Z,99.90
2023-08-31T22:22:49.554Z,99.90
2023-08-31T22:25:19.445Z,99.90
2023-08-31T22:27:55.675Z,99.90
2023-08-31T22:30:25.209Z,99.90
2023-08-31T22:32:52.548Z,99.90
2023-08-31T22:35:26.399Z,99.90
2023-08-31T22:37:56.721Z,99.90
2023-08-31T22:40:28.144Z,99.90
2023-08-31T22:43:00.292Z,99.90
2023-08-31T22:45:27.710Z,99.90
2023-08-31T22:47:54.967Z,99.90
2023-08-31T22:50:35.754Z,99.90
2023-08-31T22:53:16.211Z,99.90
2023-08-31T22:55:55.098Z,99.90
2023-08-31T22:58:22.642Z,99.90
2023-08-31T23:00:52.295Z,99.90
2023-08-31T23:03:25.021Z,99.90
2023-08-31T23:05:52.298Z,99.90
2023-08-31T23:08:19.283Z,99.90
2023-08-31T23:10:59.445Z,99.90
2023-08-31T23:13:39.569Z,99.90
2023-08-31T23:16:08.879Z,99.90
2023-08-31T23:18:36.308Z,99.90
2023-08-31T23:21:11.788Z,99.90
2023-08-31T23:23:39.304Z,99.90
2023-08-31T23:28:50.068Z,99.90
2023-08-31T23:31:25.829Z,99.90
2023-08-31T23:33:53.015Z,99.90
2023-08-31T23:36:20.194Z,99.90
2023-08-31T23:38:47.338Z,99.90
2023-08-31T23:41:18.863Z,99.90
2023-08-31T23:43:47.476Z,99.90
2023-08-31T23:46:26.740Z,99.90
2023-08-31T23:51:36.311Z,99.90
2023-08-31T23:54:06.048Z,99.90
2023-08-31T23:56:38.756Z,99.90
